sensor_id;sensor_type;location;lat;lon;timestamp;P1;durP1;ratioP1;P2;durP2;ratioP2
1507;SDS011;745;48.586;10.032;2023-03-01T00:04:00;25.63;;;16.10;;
1507;SDS011;745;48.586;10.032;2023-03-01T00:08:30;26.30;;;16.43;;
1507;SDS011;745;48.586;10.032;2023-03-01T00:13:02;26.70;;;16.43;;
1507;SDS011;745;48.586;10.032;2023-03-01T00:17:35;28.73;;;17.80;;
1507;SDS011;745;48.586;10.032;2023-03-01T00:22:05;26.93;;;16.80;;
1507;SDS011;745;48.586;10.032;2023-03-01T00:26:35;29.50;;;18.33;;
1507;SDS011;745;48.586;10.032;2023-03-01T00:31:07;28.87;;;17.70;;
1507;SDS011;745;48.586;10.032;2023-03-01T00:35:40;27.93;;;17.07;;
1507;SDS011;745;48.586;10.032;2023-03-01T00:40:11;28.40;;;16.17;;
1507;SDS011;745;48.586;10.032;2023-03-01T00:44:42;29.33;;;17.20;;
1507;SDS011;745;48.586;10.032;2023-03-01T00:49:13;28.43;;;17.87;;
1507;SDS011;745;48.586;10.032;2023-03-01T00:53:43;28.67;;;18.37;;
1507;SDS011;745;48.586;10.032;2023-03-01T00:58:14;27.53;;;17.67;;
1507;SDS011;745;48.586;10.032;2023-03-01T01:02:44;27.50;;;16.13;;
1507;SDS011;745;48.586;10.032;2023-03-01T01:07:16;29.67;;;17.67;;
1507;SDS011;745;48.586;10.032;2023-03-01T01:11:47;25.30;;;15.20;;
1507;SDS011;745;48.586;10.032;2023-03-01T01:16:20;32.60;;;17.90;;
1507;SDS011;745;48.586;10.032;2023-03-01T01:20:52;24.10;;;16.17;;
1507;SDS011;745;48.586;10.032;2023-03-01T01:25:22;25.90;;;16.60;;
1507;SDS011;745;48.586;10.032;2023-03-01T01:29:54;30.00;;;17.30;;
1507;SDS011;745;48.586;10.032;2023-03-01T01:34:25;28.57;;;17.37;;
1507;SDS011;745;48.586;10.032;2023-03-01T01:38:55;25.77;;;17.60;;
1507;SDS011;745;48.586;10.032;2023-03-01T01:43:28;30.63;;;17.13;;
1507;SDS011;745;48.586;10.032;2023-03-01T01:48:04;26.73;;;17.03;;
1507;SDS011;745;48.586;10.032;2023-03-01T01:52:37;22.60;;;14.93;;
1507;SDS011;745;48.586;10.032;2023-03-01T01:57:09;24.90;;;15.23;;
1507;SDS011;745;48.586;10.032;2023-03-01T02:01:43;27.60;;;15.73;;
1507;SDS011;745;48.586;10.032;2023-03-01T02:06:18;25.17;;;16.13;;
1507;SDS011;745;48.586;10.032;2023-03-01T02:10:58;21.43;;;15.10;;
1507;SDS011;745;48.586;10.032;2023-03-01T02:15:33;24.20;;;15.43;;
1507;SDS011;745;48.586;10.032;2023-03-01T02:29:17;27.83;;;16.23;;
1507;SDS011;745;48.586;10.032;2023-03-01T02:33:48;26.00;;;15.23;;
1507;SDS011;745;48.586;10.032;2023-03-01T02:38:19;27.73;;;15.43;;
1507;SDS011;745;48.586;10.032;2023-03-01T02:42:53;19.90;;;12.70;;
1507;SDS011;745;48.586;10.032;2023-03-01T02:47:26;20.87;;;13.57;;
1507;SDS011;745;48.586;10.032;2023-03-01T02:56:53;25.33;;;16.23;;
1507;SDS011;745;48.586;10.032;2023-03-01T03:01:23;28.43;;;17.30;;
1507;SDS011;745;48.586;10.032;2023-03-01T03:06:03;23.67;;;16.27;;
1507;SDS011;745;48.586;10.032;2023-03-01T03:10:37;23.90;;;15.43;;
1507;SDS011;745;48.586;10.032;2023-03-01T03:15:10;29.57;;;16.17;;
1507;SDS011;745;48.586;10.032;2023-03-01T03:19:42;27.63;;;17.00;;
1507;SDS011;745;48.586;10.032;2023-03-01T03:24:15;26.30;;;16.10;;
1507;SDS011;745;48.586;10.032;2023-03-01T03:28:45;31.17;;;17.60;;
1507;SDS011;745;48.586;10.032;2023-03-01T03:33:16;28.83;;;15.50;;
1507;SDS011;745;48.586;10.032;2023-03-01T03:37:47;26.63;;;16.33;;
1507;SDS011;745;48.586;10.032;2023-03-01T03:42:32;27.37;;;15.67;;
1507;SDS011;745;48.586;10.032;2023-03-01T03:47:03;25.93;;;16.93;;
1507;SDS011;745;48.586;10.032;2023-03-01T03:51:33;27.40;;;17.60;;
1507;SDS011;745;48.586;10.032;2023-03-01T03:56:04;28.97;;;15.50;;
1507;SDS011;745;48.586;10.032;2023-03-01T04:00:36;34.47;;;17.83;;
1507;SDS011;745;48.586;10.032;2023-03-01T04:05:11;28.43;;;16.90;;
1507;SDS011;745;48.586;10.032;2023-03-01T04:09:44;25.10;;;15.43;;
1507;SDS011;745;48.586;10.032;2023-03-01T04:14:14;26.50;;;17.13;;
1507;SDS011;745;48.586;10.032;2023-03-01T04:18:45;28.57;;;17.37;;
1507;SDS011;745;48.586;10.032;2023-03-01T04:23:17;27.60;;;18.27;;
1507;SDS011;745;48.586;10.032;2023-03-01T04:27:50;23.43;;;14.80;;
1507;SDS011;745;48.586;10.032;2023-03-01T04:32:20;28.93;;;18.13;;
1507;SDS011;745;48.586;10.032;2023-03-01T04:36:50;27.87;;;16.60;;
1507;SDS011;745;48.586;10.032;2023-03-01T04:41:22;28.10;;;18.00;;
1507;SDS011;745;48.586;10.032;2023-03-01T04:45:53;29.40;;;17.07;;
1507;SDS011;745;48.586;10.032;2023-03-01T04:50:23;29.20;;;17.60;;
1507;SDS011;745;48.586;10.032;2023-03-01T04:54:55;34.10;;;19.20;;
1507;SDS011;745;48.586;10.032;2023-03-01T04:59:26;29.60;;;19.00;;
1507;SDS011;745;48.586;10.032;2023-03-01T05:03:56;27.27;;;17.93;;
1507;SDS011;745;48.586;10.032;2023-03-01T05:08:32;29.37;;;18.10;;
1507;SDS011;745;48.586;10.032;2023-03-01T05:13:04;30.53;;;18.33;;
1507;SDS011;745;48.586;10.032;2023-03-01T05:17:34;28.93;;;17.90;;
1507;SDS011;745;48.586;10.032;2023-03-01T05:22:05;30.93;;;16.67;;
1507;SDS011;745;48.586;10.032;2023-03-01T05:26:35;29.60;;;17.27;;
1507;SDS011;745;48.586;10.032;2023-03-01T05:31:10;32.30;;;19.87;;
1507;SDS011;745;48.586;10.032;2023-03-01T05:35:41;30.30;;;18.70;;
1507;SDS011;745;48.586;10.032;2023-03-01T05:40:14;28.53;;;17.83;;
1507;SDS011;745;48.586;10.032;2023-03-01T05:44:48;27.57;;;17.00;;
1507;SDS011;745;48.586;10.032;2023-03-01T05:49:19;29.03;;;15.97;;
1507;SDS011;745;48.586;10.032;2023-03-01T05:53:49;33.10;;;18.50;;
1507;SDS011;745;48.586;10.032;2023-03-01T05:58:19;27.77;;;18.10;;
1507;SDS011;745;48.586;10.032;2023-03-01T06:02:50;33.03;;;18.77;;
1507;SDS011;745;48.586;10.032;2023-03-01T06:07:21;28.00;;;16.80;;
1507;SDS011;745;48.586;10.032;2023-03-01T06:11:52;29.43;;;18.17;;
1507;SDS011;745;48.586;10.032;2023-03-01T06:16:22;26.90;;;16.70;;
1507;SDS011;745;48.586;10.032;2023-03-01T06:20:56;27.80;;;16.17;;
1507;SDS011;745;48.586;10.032;2023-03-01T06:25:26;30.57;;;17.50;;
1507;SDS011;745;48.586;10.032;2023-03-01T06:29:58;34.60;;;20.53;;
1507;SDS011;745;48.586;10.032;2023-03-01T06:34:29;29.60;;;18.30;;
1507;SDS011;745;48.586;10.032;2023-03-01T06:38:59;30.07;;;19.00;;
1507;SDS011;745;48.586;10.032;2023-03-01T06:43:30;33.47;;;17.57;;
1507;SDS011;745;48.586;10.032;2023-03-01T06:48:01;29.70;;;17.40;;
1507;SDS011;745;48.586;10.032;2023-03-01T06:52:33;31.43;;;19.80;;
1507;SDS011;745;48.586;10.032;2023-03-01T06:57:04;32.00;;;19.17;;
1507;SDS011;745;48.586;10.032;2023-03-01T07:01:34;30.40;;;18.33;;
1507;SDS011;745;48.586;10.032;2023-03-01T07:06:04;32.17;;;18.30;;
1507;SDS011;745;48.586;10.032;2023-03-01T07:10:35;28.83;;;17.60;;
1507;SDS011;745;48.586;10.032;2023-03-01T07:15:06;32.60;;;18.87;;
1507;SDS011;745;48.586;10.032;2023-03-01T07:19:39;30.23;;;17.87;;
1507;SDS011;745;48.586;10.032;2023-03-01T07:24:09;32.03;;;19.70;;
1507;SDS011;745;48.586;10.032;2023-03-01T07:28:40;28.47;;;17.87;;
1507;SDS011;745;48.586;10.032;2023-03-01T07:33:11;31.00;;;18.40;;
1507;SDS011;745;48.586;10.032;2023-03-01T07:37:41;32.27;;;18.87;;
1507;SDS011;745;48.586;10.032;2023-03-01T07:42:11;29.90;;;17.90;;
1507;SDS011;745;48.586;10.032;2023-03-01T07:46:42;29.00;;;18.70;;
1507;SDS011;745;48.586;10.032;2023-03-01T07:51:13;25.17;;;16.80;;
1507;SDS011;745;48.586;10.032;2023-03-01T07:55:43;28.07;;;17.60;;
1507;SDS011;745;48.586;10.032;2023-03-01T08:00:14;25.23;;;16.87;;
1507;SDS011;745;48.586;10.032;2023-03-01T08:04:44;23.90;;;16.27;;
1507;SDS011;745;48.586;10.032;2023-03-01T08:09:14;28.00;;;17.00;;
1507;SDS011;745;48.586;10.032;2023-03-01T08:13:46;30.10;;;19.10;;
1507;SDS011;745;48.586;10.032;2023-03-01T08:18:18;29.77;;;17.37;;
1507;SDS011;745;48.586;10.032;2023-03-01T08:22:49;29.30;;;17.57;;
1507;SDS011;745;48.586;10.032;2023-03-01T08:27:19;28.63;;;17.17;;
1507;SDS011;745;48.586;10.032;2023-03-01T08:31:50;26.37;;;16.17;;
1507;SDS011;745;48.586;10.032;2023-03-01T08:36:23;24.70;;;16.10;;
1507;SDS011;745;48.586;10.032;2023-03-01T08:41:02;27.70;;;17.83;;
1507;SDS011;745;48.586;10.032;2023-03-01T08:45:33;33.27;;;18.33;;
1507;SDS011;745;48.586;10.032;2023-03-01T08:50:03;23.60;;;15.80;;
1507;SDS011;745;48.586;10.032;2023-03-01T08:54:34;26.53;;;16.03;;
1507;SDS011;745;48.586;10.032;2023-03-01T08:59:04;26.80;;;17.10;;
1507;SDS011;745;48.586;10.032;2023-03-01T09:03:35;26.30;;;16.80;;
1507;SDS011;745;48.586;10.032;2023-03-01T09:08:05;26.57;;;17.10;;
1507;SDS011;745;48.586;10.032;2023-03-01T09:12:38;29.20;;;19.30;;
1507;SDS011;745;48.586;10.032;2023-03-01T09:17:08;27.80;;;18.57;;
1507;SDS011;745;48.586;10.032;2023-03-01T09:21:38;25.73;;;17.40;;
1507;SDS011;745;48.586;10.032;2023-03-01T09:26:11;23.77;;;16.70;;
1507;SDS011;745;48.586;10.032;2023-03-01T09:30:46;22.97;;;14.83;;
1507;SDS011;745;48.586;10.032;2023-03-01T09:35:16;27.90;;;18.30;;
1507;SDS011;745;48.586;10.032;2023-03-01T09:39:47;28.47;;;18.37;;
1507;SDS011;745;48.586;10.032;2023-03-01T09:49:19;26.00;;;15.80;;
1507;SDS011;745;48.586;10.032;2023-03-01T09:53:52;30.80;;;17.07;;
1507;SDS011;745;48.586;10.032;2023-03-01T10:12:49;26.20;;;16.83;;
1507;SDS011;745;48.586;10.032;2023-03-01T10:22:28;24.23;;;16.97;;
1507;SDS011;745;48.586;10.032;2023-03-01T10:27:07;28.90;;;17.83;;
1507;SDS011;745;48.586;10.032;2023-03-01T10:31:47;27.50;;;17.27;;
1507;SDS011;745;48.586;10.032;2023-03-01T10:36:20;25.80;;;17.50;;
1507;SDS011;745;48.586;10.032;2023-03-01T10:45:30;28.60;;;18.20;;
1507;SDS011;745;48.586;10.032;2023-03-01T10:50:08;25.30;;;17.87;;
1507;SDS011;745;48.586;10.032;2023-03-01T10:54:59;22.83;;;16.00;;
1507;SDS011;745;48.586;10.032;2023-03-01T10:59:32;27.13;;;16.77;;
1507;SDS011;745;48.586;10.032;2023-03-01T11:08:36;28.45;;;17.48;;
1507;SDS011;745;48.586;10.032;2023-03-01T11:13:19;24.80;;;16.60;;
1507;SDS011;745;48.586;10.032;2023-03-01T11:17:50;24.87;;;15.10;;
1507;SDS011;745;48.586;10.032;2023-03-01T11:22:20;23.27;;;16.50;;
1507;SDS011;745;48.586;10.032;2023-03-01T11:26:53;26.20;;;18.73;;
1507;SDS011;745;48.586;10.032;2023-03-01T11:31:24;26.03;;;18.43;;
1507;SDS011;745;48.586;10.032;2023-03-01T11:35:57;24.63;;;16.40;;
1507;SDS011;745;48.586;10.032;2023-03-01T11:40:39;22.60;;;17.03;;
1507;SDS011;745;48.586;10.032;2023-03-01T11:45:11;23.50;;;16.83;;
1507;SDS011;745;48.586;10.032;2023-03-01T12:04:36;24.93;;;16.60;;
1507;SDS011;745;48.586;10.032;2023-03-01T12:28:03;24.60;;;16.17;;
1507;SDS011;745;48.586;10.032;2023-03-01T12:33:00;23.00;;;16.13;;
1507;SDS011;745;48.586;10.032;2023-03-01T12:52:33;25.40;;;15.70;;
1507;SDS011;745;48.586;10.032;2023-03-01T12:57:28;22.07;;;15.77;;
1507;SDS011;745;48.586;10.032;2023-03-01T13:02:05;20.27;;;15.50;;
1507;SDS011;745;48.586;10.032;2023-03-01T13:11:40;25.30;;;17.10;;
1507;SDS011;745;48.586;10.032;2023-03-01T13:16:22;22.73;;;16.27;;
1507;SDS011;745;48.586;10.032;2023-03-01T13:21:08;22.13;;;16.40;;
1507;SDS011;745;48.586;10.032;2023-03-01T13:39:47;22.97;;;15.77;;
1507;SDS011;745;48.586;10.032;2023-03-01T13:48:54;23.20;;;15.50;;
1507;SDS011;745;48.586;10.032;2023-03-01T13:53:27;22.83;;;16.17;;
1507;SDS011;745;48.586;10.032;2023-03-01T14:03:03;21.40;;;15.43;;
1507;SDS011;745;48.586;10.032;2023-03-01T14:07:35;20.73;;;13.83;;
1507;SDS011;745;48.586;10.032;2023-03-01T14:17:08;23.00;;;15.47;;
1507;SDS011;745;48.586;10.032;2023-03-01T14:21:40;24.37;;;15.43;;
1507;SDS011;745;48.586;10.032;2023-03-01T14:26:11;20.20;;;15.13;;
1507;SDS011;745;48.586;10.032;2023-03-01T14:30:49;20.63;;;15.93;;
1507;SDS011;745;48.586;10.032;2023-03-01T14:35:27;19.43;;;14.17;;
1507;SDS011;745;48.586;10.032;2023-03-01T14:40:00;20.43;;;14.67;;
1507;SDS011;745;48.586;10.032;2023-03-01T14:44:33;21.37;;;14.97;;
1507;SDS011;745;48.586;10.032;2023-03-01T14:49:17;21.80;;;14.43;;
1507;SDS011;745;48.586;10.032;2023-03-01T14:53:50;23.70;;;15.20;;
1507;SDS011;745;48.586;10.032;2023-03-01T14:58:22;20.77;;;14.47;;
1507;SDS011;745;48.586;10.032;2023-03-01T15:02:55;18.00;;;13.17;;
1507;SDS011;745;48.586;10.032;2023-03-01T15:07:31;18.10;;;13.23;;
1507;SDS011;745;48.586;10.032;2023-03-01T15:17:04;22.83;;;15.23;;
1507;SDS011;745;48.586;10.032;2023-03-01T15:21:36;25.60;;;16.33;;
1507;SDS011;745;48.586;10.032;2023-03-01T15:26:17;19.50;;;13.50;;
1507;SDS011;745;48.586;10.032;2023-03-01T15:36:03;21.70;;;13.80;;
1507;SDS011;745;48.586;10.032;2023-03-01T15:40:28;22.40;;;14.30;;
1507;SDS011;745;48.586;10.032;2023-03-01T15:49:40;16.47;;;11.83;;
1507;SDS011;745;48.586;10.032;2023-03-01T15:54:14;24.13;;;12.67;;
1507;SDS011;745;48.586;10.032;2023-03-01T15:58:48;19.30;;;13.43;;
1507;SDS011;745;48.586;10.032;2023-03-01T16:03:18;17.40;;;12.33;;
1507;SDS011;745;48.586;10.032;2023-03-01T16:07:51;20.03;;;13.80;;
1507;SDS011;745;48.586;10.032;2023-03-01T16:12:22;19.70;;;13.13;;
1507;SDS011;745;48.586;10.032;2023-03-01T16:16:54;14.07;;;10.47;;
1507;SDS011;745;48.586;10.032;2023-03-01T16:21:24;16.60;;;10.60;;
1507;SDS011;745;48.586;10.032;2023-03-01T16:25:58;19.50;;;13.90;;
1507;SDS011;745;48.586;10.032;2023-03-01T16:30:29;17.13;;;12.07;;
1507;SDS011;745;48.586;10.032;2023-03-01T16:35:00;21.00;;;14.27;;
1507;SDS011;745;48.586;10.032;2023-03-01T16:39:30;17.30;;;11.70;;
1507;SDS011;745;48.586;10.032;2023-03-01T16:44:01;23.07;;;13.30;;
1507;SDS011;745;48.586;10.032;2023-03-01T16:48:35;17.83;;;12.20;;
1507;SDS011;745;48.586;10.032;2023-03-01T16:53:05;18.97;;;12.13;;
1507;SDS011;745;48.586;10.032;2023-03-01T16:57:36;17.37;;;13.00;;
1507;SDS011;745;48.586;10.032;2023-03-01T17:02:11;23.37;;;12.83;;
1507;SDS011;745;48.586;10.032;2023-03-01T17:06:43;16.57;;;11.93;;
1507;SDS011;745;48.586;10.032;2023-03-01T17:11:14;17.73;;;12.37;;
1507;SDS011;745;48.586;10.032;2023-03-01T17:15:46;19.57;;;13.20;;
1507;SDS011;745;48.586;10.032;2023-03-01T17:20:16;15.13;;;9.93;;
1507;SDS011;745;48.586;10.032;2023-03-01T17:24:47;10.97;;;8.07;;
1507;SDS011;745;48.586;10.032;2023-03-01T17:29:17;13.70;;;9.60;;
1507;SDS011;745;48.586;10.032;2023-03-01T17:33:48;14.10;;;10.07;;
1507;SDS011;745;48.586;10.032;2023-03-01T17:38:19;13.90;;;8.80;;
1507;SDS011;745;48.586;10.032;2023-03-01T17:42:49;15.40;;;9.47;;
1507;SDS011;745;48.586;10.032;2023-03-01T17:47:19;13.10;;;10.00;;
1507;SDS011;745;48.586;10.032;2023-03-01T17:51:50;15.30;;;10.07;;
1507;SDS011;745;48.586;10.032;2023-03-01T17:56:20;15.17;;;8.73;;
1507;SDS011;745;48.586;10.032;2023-03-01T18:00:50;14.50;;;8.80;;
1507;SDS011;745;48.586;10.032;2023-03-01T18:05:21;12.63;;;9.00;;
1507;SDS011;745;48.586;10.032;2023-03-01T18:09:51;16.23;;;10.70;;
1507;SDS011;745;48.586;10.032;2023-03-01T18:14:21;17.00;;;10.90;;
1507;SDS011;745;48.586;10.032;2023-03-01T18:18:53;18.67;;;10.50;;
1507;SDS011;745;48.586;10.032;2023-03-01T18:23:24;16.17;;;10.90;;
1507;SDS011;745;48.586;10.032;2023-03-01T18:27:54;23.27;;;14.23;;
1507;SDS011;745;48.586;10.032;2023-03-01T18:32:25;20.17;;;12.60;;
1507;SDS011;745;48.586;10.032;2023-03-01T18:36:56;21.77;;;14.33;;
1507;SDS011;745;48.586;10.032;2023-03-01T18:41:27;17.47;;;12.30;;
1507;SDS011;745;48.586;10.032;2023-03-01T18:45:57;20.63;;;14.23;;
1507;SDS011;745;48.586;10.032;2023-03-01T18:50:28;22.10;;;14.50;;
1507;SDS011;745;48.586;10.032;2023-03-01T18:54:58;22.17;;;15.17;;
1507;SDS011;745;48.586;10.032;2023-03-01T18:59:29;24.00;;;15.23;;
1507;SDS011;745;48.586;10.032;2023-03-01T19:03:59;26.13;;;15.30;;
1507;SDS011;745;48.586;10.032;2023-03-01T19:08:30;23.80;;;15.83;;
1507;SDS011;745;48.586;10.032;2023-03-01T19:13:00;27.33;;;17.10;;
1507;SDS011;745;48.586;10.032;2023-03-01T19:17:31;26.13;;;17.13;;
1507;SDS011;745;48.586;10.032;2023-03-01T19:22:01;25.03;;;15.70;;
1507;SDS011;745;48.586;10.032;2023-03-01T19:26:32;25.33;;;16.80;;
1507;SDS011;745;48.586;10.032;2023-03-01T19:31:03;26.10;;;16.57;;
1507;SDS011;745;48.586;10.032;2023-03-01T19:35:35;29.17;;;19.00;;
1507;SDS011;745;48.586;10.032;2023-03-01T19:40:06;26.63;;;16.37;;
1507;SDS011;745;48.586;10.032;2023-03-01T19:44:37;24.83;;;15.60;;
1507;SDS011;745;48.586;10.032;2023-03-01T19:49:08;28.73;;;18.30;;
1507;SDS011;745;48.586;10.032;2023-03-01T19:53:39;27.60;;;17.50;;
1507;SDS011;745;48.586;10.032;2023-03-01T19:58:10;29.20;;;17.63;;
1507;SDS011;745;48.586;10.032;2023-03-01T20:02:41;30.23;;;19.20;;
1507;SDS011;745;48.586;10.032;2023-03-01T20:07:11;26.70;;;17.53;;
1507;SDS011;745;48.586;10.032;2023-03-01T20:11:42;33.50;;;19.80;;
1507;SDS011;745;48.586;10.032;2023-03-01T20:16:16;29.10;;;17.70;;
1507;SDS011;745;48.586;10.032;2023-03-01T20:20:47;28.17;;;17.33;;
1507;SDS011;745;48.586;10.032;2023-03-01T20:25:18;27.30;;;18.10;;
1507;SDS011;745;48.586;10.032;2023-03-01T20:29:49;31.40;;;19.60;;
1507;SDS011;745;48.586;10.032;2023-03-01T20:34:19;28.00;;;17.97;;
1507;SDS011;745;48.586;10.032;2023-03-01T20:38:54;29.80;;;19.97;;
1507;SDS011;745;48.586;10.032;2023-03-01T20:43:25;30.60;;;18.67;;
1507;SDS011;745;48.586;10.032;2023-03-01T20:47:56;35.60;;;19.10;;
1507;SDS011;745;48.586;10.032;2023-03-01T20:52:26;33.87;;;20.63;;
1507;SDS011;745;48.586;10.032;2023-03-01T20:56:56;31.10;;;18.33;;
1507;SDS011;745;48.586;10.032;2023-03-01T21:01:27;30.47;;;17.87;;
1507;SDS011;745;48.586;10.032;2023-03-01T21:05:57;25.77;;;17.20;;
1507;SDS011;745;48.586;10.032;2023-03-01T21:10:29;27.43;;;16.90;;
1507;SDS011;745;48.586;10.032;2023-03-01T21:15:00;29.87;;;17.87;;
1507;SDS011;745;48.586;10.032;2023-03-01T21:19:30;27.20;;;16.53;;
1507;SDS011;745;48.586;10.032;2023-03-01T21:24:00;31.80;;;17.90;;
1507;SDS011;745;48.586;10.032;2023-03-01T21:28:31;29.37;;;18.60;;
1507;SDS011;745;48.586;10.032;2023-03-01T21:33:02;30.77;;;18.70;;
1507;SDS011;745;48.586;10.032;2023-03-01T21:37:32;32.73;;;18.60;;
1507;SDS011;745;48.586;10.032;2023-03-01T21:42:03;32.20;;;18.33;;
1507;SDS011;745;48.586;10.032;2023-03-01T21:46:35;29.50;;;17.53;;
1507;SDS011;745;48.586;10.032;2023-03-01T21:51:07;31.33;;;18.30;;
1507;SDS011;745;48.586;10.032;2023-03-01T21:55:45;28.73;;;17.53;;
1507;SDS011;745;48.586;10.032;2023-03-01T22:00:16;29.87;;;17.43;;
1507;SDS011;745;48.586;10.032;2023-03-01T22:04:50;29.67;;;17.93;;
1507;SDS011;745;48.586;10.032;2023-03-01T22:09:26;30.60;;;16.83;;
1507;SDS011;745;48.586;10.032;2023-03-01T22:13:56;36.67;;;19.20;;
1507;SDS011;745;48.586;10.032;2023-03-01T22:18:26;30.10;;;17.83;;
1507;SDS011;745;48.586;10.032;2023-03-01T22:22:57;29.27;;;17.10;;
1507;SDS011;745;48.586;10.032;2023-03-01T22:27:27;33.13;;;17.53;;
1507;SDS011;745;48.586;10.032;2023-03-01T22:31:59;28.20;;;17.03;;
1507;SDS011;745;48.586;10.032;2023-03-01T22:36:30;26.10;;;16.93;;
1507;SDS011;745;48.586;10.032;2023-03-01T22:41:01;29.00;;;17.97;;
1507;SDS011;745;48.586;10.032;2023-03-01T22:45:33;26.93;;;17.60;;
1507;SDS011;745;48.586;10.032;2023-03-01T22:50:05;33.00;;;18.50;;
1507;SDS011;745;48.586;10.032;2023-03-01T22:54:36;31.50;;;18.23;;
1507;SDS011;745;48.586;10.032;2023-03-01T22:59:07;30.63;;;18.60;;
1507;SDS011;745;48.586;10.032;2023-03-01T23:03:39;31.57;;;17.53;;
1507;SDS011;745;48.586;10.032;2023-03-01T23:08:10;35.87;;;17.37;;
1507;SDS011;745;48.586;10.032;2023-03-01T23:12:40;31.53;;;18.47;;
1507;SDS011;745;48.586;10.032;2023-03-01T23:17:10;34.73;;;21.30;;
1507;SDS011;745;48.586;10.032;2023-03-01T23:21:42;33.40;;;18.07;;
1507;SDS011;745;48.586;10.032;2023-03-01T23:26:16;34.20;;;18.83;;
1507;SDS011;745;48.586;10.032;2023-03-01T23:30:53;29.57;;;18.73;;
1507;SDS011;745;48.586;10.032;2023-03-01T23:35:25;30.20;;;18.13;;
1507;SDS011;745;48.586;10.032;2023-03-01T23:39:56;34.03;;;17.90;;
1507;SDS011;745;48.586;10.032;2023-03-01T23:44:26;30.43;;;17.17;;
1507;SDS011;745;48.586;10.032;2023-03-01T23:48:57;29.70;;;19.00;;
1507;SDS011;745;48.586;10.032;2023-03-01T23:53:28;31.13;;;19.07;;
1507;SDS011;745;48.586;10.032;2023-03-01T23:57:58;31.20;;;19.90;;
